sensor_id;sensor_type;location;lat;lon;timestamp;P1;durP1;ratioP1;P2;durP2;ratioP2
2940;SDS011;1480;51.456;6.670;2022-07-29T00:00:22;6.33;;;1.63;;
2940;SDS011;1480;51.456;6.670;2022-07-29T00:02:49;6.50;;;2.10;;
2940;SDS011;1480;51.456;6.670;2022-07-29T00:05:16;3.53;;;1.33;;
2940;SDS011;1480;51.456;6.670;2022-07-29T00:07:43;8.17;;;1.93;;
2940;SDS011;1480;51.456;6.670;2022-07-29T00:10:10;5.70;;;1.50;;
2940;SDS011;1480;51.456;6.670;2022-07-29T00:12:38;5.13;;;1.90;;
2940;SDS011;1480;51.456;6.670;2022-07-29T00:15:05;5.07;;;1.70;;
2940;SDS011;1480;51.456;6.670;2022-07-29T00:17:33;5.30;;;2.13;;
2940;SDS011;1480;51.456;6.670;2022-07-29T00:20:00;3.53;;;1.60;;
2940;SDS011;1480;51.456;6.670;2022-07-29T00:22:27;6.13;;;1.63;;
2940;SDS011;1480;51.456;6.670;2022-07-29T00:24:54;2.73;;;1.47;;
2940;SDS011;1480;51.456;6.670;2022-07-29T00:27:21;8.30;;;1.50;;
2940;SDS011;1480;51.456;6.670;2022-07-29T00:29:49;3.70;;;1.60;;
2940;SDS011;1480;51.456;6.670;2022-07-29T00:32:16;5.97;;;1.67;;
2940;SDS011;1480;51.456;6.670;2022-07-29T00:34:43;5.23;;;1.70;;
2940;SDS011;1480;51.456;6.670;2022-07-29T00:37:27;4.50;;;1.50;;
2940;SDS011;1480;51.456;6.670;2022-07-29T00:39:55;4.50;;;1.40;;
2940;SDS011;1480;51.456;6.670;2022-07-29T00:42:22;5.13;;;1.90;;
2940;SDS011;1480;51.456;6.670;2022-07-29T00:44:50;5.30;;;1.80;;
2940;SDS011;1480;51.456;6.670;2022-07-29T00:47:17;9.30;;;1.90;;
2940;SDS011;1480;51.456;6.670;2022-07-29T00:49:44;4.90;;;1.50;;
2940;SDS011;1480;51.456;6.670;2022-07-29T00:52:11;5.73;;;1.80;;
2940;SDS011;1480;51.456;6.670;2022-07-29T00:54:38;6.00;;;2.17;;
2940;SDS011;1480;51.456;6.670;2022-07-29T00:57:06;2.50;;;1.30;;
2940;SDS011;1480;51.456;6.670;2022-07-29T00:59:33;3.57;;;1.40;;
2940;SDS011;1480;51.456;6.670;2022-07-29T01:02:02;3.43;;;1.50;;
2940;SDS011;1480;51.456;6.670;2022-07-29T01:04:29;6.70;;;1.50;;
2940;SDS011;1480;51.456;6.670;2022-07-29T01:06:57;4.90;;;1.60;;
2940;SDS011;1480;51.456;6.670;2022-07-29T01:09:25;6.67;;;1.57;;
2940;SDS011;1480;51.456;6.670;2022-07-29T01:11:53;3.97;;;1.73;;
2940;SDS011;1480;51.456;6.670;2022-07-29T01:14:20;4.07;;;1.53;;
2940;SDS011;1480;51.456;6.670;2022-07-29T01:16:53;6.63;;;1.40;;
2940;SDS011;1480;51.456;6.670;2022-07-29T01:19:43;2.00;;;1.10;;
2940;SDS011;1480;51.456;6.670;2022-07-29T01:22:19;5.10;;;1.37;;
2940;SDS011;1480;51.456;6.670;2022-07-29T01:25:05;10.40;;;1.70;;
2940;SDS011;1480;51.456;6.670;2022-07-29T01:27:44;7.00;;;1.60;;
2940;SDS011;1480;51.456;6.670;2022-07-29T01:30:22;4.80;;;1.93;;
2940;SDS011;1480;51.456;6.670;2022-07-29T01:32:53;7.17;;;1.50;;
2940;SDS011;1480;51.456;6.670;2022-07-29T01:35:23;4.27;;;1.70;;
2940;SDS011;1480;51.456;6.670;2022-07-29T01:37:55;5.60;;;1.90;;
2940;SDS011;1480;51.456;6.670;2022-07-29T01:40:29;5.37;;;2.27;;
2940;SDS011;1480;51.456;6.670;2022-07-29T01:43:03;5.90;;;1.80;;
2940;SDS011;1480;51.456;6.670;2022-07-29T01:45:38;10.73;;;2.10;;
2940;SDS011;1480;51.456;6.670;2022-07-29T01:48:10;4.03;;;2.07;;
2940;SDS011;1480;51.456;6.670;2022-07-29T01:50:44;4.83;;;1.50;;
2940;SDS011;1480;51.456;6.670;2022-07-29T01:53:14;4.03;;;1.67;;
2940;SDS011;1480;51.456;6.670;2022-07-29T01:55:50;5.30;;;1.67;;
2940;SDS011;1480;51.456;6.670;2022-07-29T01:58:19;8.20;;;1.90;;
2940;SDS011;1480;51.456;6.670;2022-07-29T02:00:48;7.03;;;1.97;;
2940;SDS011;1480;51.456;6.670;2022-07-29T02:03:16;2.77;;;1.90;;
2940;SDS011;1480;51.456;6.670;2022-07-29T02:05:45;3.90;;;1.70;;
2940;SDS011;1480;51.456;6.670;2022-07-29T02:08:14;4.13;;;1.93;;
2940;SDS011;1480;51.456;6.670;2022-07-29T02:10:43;8.77;;;2.10;;
2940;SDS011;1480;51.456;6.670;2022-07-29T02:13:11;5.97;;;2.50;;
2940;SDS011;1480;51.456;6.670;2022-07-29T02:15:40;4.83;;;2.20;;
2940;SDS011;1480;51.456;6.670;2022-07-29T02:18:11;4.77;;;2.00;;
2940;SDS011;1480;51.456;6.670;2022-07-29T02:20:42;7.90;;;2.40;;
2940;SDS011;1480;51.456;6.670;2022-07-29T02:23:12;5.57;;;2.00;;
2940;SDS011;1480;51.456;6.670;2022-07-29T02:25:43;6.33;;;2.00;;
2940;SDS011;1480;51.456;6.670;2022-07-29T02:28:10;3.23;;;1.30;;
2940;SDS011;1480;51.456;6.670;2022-07-29T02:30:38;7.43;;;1.30;;
2940;SDS011;1480;51.456;6.670;2022-07-29T02:33:08;7.13;;;1.90;;
2940;SDS011;1480;51.456;6.670;2022-07-29T02:35:40;3.87;;;1.80;;
2940;SDS011;1480;51.456;6.670;2022-07-29T02:38:10;4.57;;;1.60;;
2940;SDS011;1480;51.456;6.670;2022-07-29T02:40:56;4.90;;;1.20;;
2940;SDS011;1480;51.456;6.670;2022-07-29T02:43:25;6.80;;;1.63;;
2940;SDS011;1480;51.456;6.670;2022-07-29T02:45:52;3.83;;;1.53;;
2940;SDS011;1480;51.456;6.670;2022-07-29T02:48:24;9.23;;;1.70;;
2940;SDS011;1480;51.456;6.670;2022-07-29T02:50:59;4.20;;;1.30;;
2940;SDS011;1480;51.456;6.670;2022-07-29T02:53:32;9.60;;;2.63;;
2940;SDS011;1480;51.456;6.670;2022-07-29T02:56:01;8.73;;;1.60;;
2940;SDS011;1480;51.456;6.670;2022-07-29T02:58:33;5.87;;;2.00;;
2940;SDS011;1480;51.456;6.670;2022-07-29T03:01:04;6.70;;;1.70;;
2940;SDS011;1480;51.456;6.670;2022-07-29T03:03:38;8.57;;;2.10;;
2940;SDS011;1480;51.456;6.670;2022-07-29T03:06:08;3.63;;;1.47;;
2940;SDS011;1480;51.456;6.670;2022-07-29T03:08:37;7.37;;;2.20;;
2940;SDS011;1480;51.456;6.670;2022-07-29T03:11:05;4.03;;;1.63;;
2940;SDS011;1480;51.456;6.670;2022-07-29T03:13:34;5.30;;;2.30;;
2940;SDS011;1480;51.456;6.670;2022-07-29T03:16:02;4.30;;;1.87;;
2940;SDS011;1480;51.456;6.670;2022-07-29T03:18:31;5.03;;;2.00;;
2940;SDS011;1480;51.456;6.670;2022-07-29T03:20:59;3.80;;;2.00;;
2940;SDS011;1480;51.456;6.670;2022-07-29T03:23:27;4.43;;;2.10;;
2940;SDS011;1480;51.456;6.670;2022-07-29T03:25:54;4.40;;;1.93;;
2940;SDS011;1480;51.456;6.670;2022-07-29T03:28:21;4.47;;;2.03;;
2940;SDS011;1480;51.456;6.670;2022-07-29T03:30:49;8.10;;;2.10;;
2940;SDS011;1480;51.456;6.670;2022-07-29T03:33:16;4.23;;;2.17;;
2940;SDS011;1480;51.456;6.670;2022-07-29T03:35:43;4.90;;;1.97;;
2940;SDS011;1480;51.456;6.670;2022-07-29T03:38:11;5.90;;;2.00;;
2940;SDS011;1480;51.456;6.670;2022-07-29T03:40:40;3.40;;;1.30;;
2940;SDS011;1480;51.456;6.670;2022-07-29T03:43:10;4.27;;;1.60;;
2940;SDS011;1480;51.456;6.670;2022-07-29T03:45:39;4.20;;;1.90;;
2940;SDS011;1480;51.456;6.670;2022-07-29T03:48:10;4.43;;;1.80;;
2940;SDS011;1480;51.456;6.670;2022-07-29T03:50:40;3.20;;;1.70;;
2940;SDS011;1480;51.456;6.670;2022-07-29T03:53:07;5.53;;;1.80;;
2940;SDS011;1480;51.456;6.670;2022-07-29T03:55:37;7.07;;;1.50;;
2940;SDS011;1480;51.456;6.670;2022-07-29T03:58:07;7.00;;;1.47;;
2940;SDS011;1480;51.456;6.670;2022-07-29T04:00:37;5.63;;;1.50;;
2940;SDS011;1480;51.456;6.670;2022-07-29T04:03:04;4.53;;;2.40;;
2940;SDS011;1480;51.456;6.670;2022-07-29T04:05:32;8.93;;;2.63;;
2940;SDS011;1480;51.456;6.670;2022-07-29T04:07:59;11.27;;;2.93;;
2940;SDS011;1480;51.456;6.670;2022-07-29T04:10:26;5.33;;;2.70;;
2940;SDS011;1480;51.456;6.670;2022-07-29T04:12:54;6.50;;;2.27;;
2940;SDS011;1480;51.456;6.670;2022-07-29T04:15:21;5.13;;;2.50;;
2940;SDS011;1480;51.456;6.670;2022-07-29T04:17:48;7.50;;;2.70;;
2940;SDS011;1480;51.456;6.670;2022-07-29T04:20:15;7.37;;;3.13;;
2940;SDS011;1480;51.456;6.670;2022-07-29T04:22:42;5.37;;;2.30;;
2940;SDS011;1480;51.456;6.670;2022-07-29T04:25:09;3.37;;;2.23;;
2940;SDS011;1480;51.456;6.670;2022-07-29T04:27:36;4.70;;;2.47;;
2940;SDS011;1480;51.456;6.670;2022-07-29T04:30:24;5.37;;;2.57;;
2940;SDS011;1480;51.456;6.670;2022-07-29T04:32:51;5.30;;;2.67;;
2940;SDS011;1480;51.456;6.670;2022-07-29T04:35:18;6.07;;;2.90;;
2940;SDS011;1480;51.456;6.670;2022-07-29T04:37:45;4.97;;;2.67;;
2940;SDS011;1480;51.456;6.670;2022-07-29T04:40:12;10.43;;;3.10;;
2940;SDS011;1480;51.456;6.670;2022-07-29T04:42:40;6.03;;;3.27;;
2940;SDS011;1480;51.456;6.670;2022-07-29T04:45:07;6.13;;;3.13;;
2940;SDS011;1480;51.456;6.670;2022-07-29T04:47:35;8.73;;;3.73;;
2940;SDS011;1480;51.456;6.670;2022-07-29T04:50:02;6.30;;;3.67;;
2940;SDS011;1480;51.456;6.670;2022-07-29T04:52:30;5.80;;;3.20;;
2940;SDS011;1480;51.456;6.670;2022-07-29T04:54:57;8.67;;;4.23;;
2940;SDS011;1480;51.456;6.670;2022-07-29T04:57:24;6.80;;;3.10;;
2940;SDS011;1480;51.456;6.670;2022-07-29T04:59:51;6.53;;;3.33;;
2940;SDS011;1480;51.456;6.670;2022-07-29T05:02:18;5.17;;;3.20;;
2940;SDS011;1480;51.456;6.670;2022-07-29T05:04:46;8.30;;;3.30;;
2940;SDS011;1480;51.456;6.670;2022-07-29T05:07:13;4.93;;;3.03;;
2940;SDS011;1480;51.456;6.670;2022-07-29T05:09:40;4.53;;;2.63;;
2940;SDS011;1480;51.456;6.670;2022-07-29T05:12:07;6.27;;;3.43;;
2940;SDS011;1480;51.456;6.670;2022-07-29T05:14:35;3.23;;;2.80;;
2940;SDS011;1480;51.456;6.670;2022-07-29T05:17:02;4.50;;;2.60;;
2940;SDS011;1480;51.456;6.670;2022-07-29T05:19:28;3.90;;;3.07;;
2940;SDS011;1480;51.456;6.670;2022-07-29T05:21:57;5.83;;;3.60;;
2940;SDS011;1480;51.456;6.670;2022-07-29T05:24:25;5.67;;;3.10;;
2940;SDS011;1480;51.456;6.670;2022-07-29T05:26:52;12.43;;;2.70;;
2940;SDS011;1480;51.456;6.670;2022-07-29T05:29:19;4.40;;;2.50;;
2940;SDS011;1480;51.456;6.670;2022-07-29T05:31:46;5.83;;;2.60;;
2940;SDS011;1480;51.456;6.670;2022-07-29T05:34:13;4.80;;;2.67;;
2940;SDS011;1480;51.456;6.670;2022-07-29T05:36:39;5.90;;;2.90;;
2940;SDS011;1480;51.456;6.670;2022-07-29T05:39:08;5.20;;;3.03;;
2940;SDS011;1480;51.456;6.670;2022-07-29T05:41:35;4.40;;;3.00;;
2940;SDS011;1480;51.456;6.670;2022-07-29T05:44:02;9.40;;;3.50;;
2940;SDS011;1480;51.456;6.670;2022-07-29T05:46:29;7.27;;;3.67;;
2940;SDS011;1480;51.456;6.670;2022-07-29T05:48:56;8.33;;;3.87;;
2940;SDS011;1480;51.456;6.670;2022-07-29T05:51:22;6.67;;;3.53;;
2940;SDS011;1480;51.456;6.670;2022-07-29T05:53:49;6.13;;;2.93;;
2940;SDS011;1480;51.456;6.670;2022-07-29T05:56:18;9.10;;;3.87;;
2940;SDS011;1480;51.456;6.670;2022-07-29T05:58:45;6.10;;;3.13;;
2940;SDS011;1480;51.456;6.670;2022-07-29T06:01:12;4.63;;;2.90;;
2940;SDS011;1480;51.456;6.670;2022-07-29T06:03:39;7.20;;;2.97;;
2940;SDS011;1480;51.456;6.670;2022-07-29T06:06:06;6.40;;;2.83;;
2940;SDS011;1480;51.456;6.670;2022-07-29T06:08:33;5.67;;;3.03;;
2940;SDS011;1480;51.456;6.670;2022-07-29T06:11:01;8.03;;;3.13;;
2940;SDS011;1480;51.456;6.670;2022-07-29T06:13:30;5.90;;;2.97;;
2940;SDS011;1480;51.456;6.670;2022-07-29T06:15:57;7.63;;;3.80;;
2940;SDS011;1480;51.456;6.670;2022-07-29T06:18:24;5.43;;;3.97;;
2940;SDS011;1480;51.456;6.670;2022-07-29T06:20:51;7.10;;;4.30;;
2940;SDS011;1480;51.456;6.670;2022-07-29T06:23:19;7.20;;;3.97;;
2940;SDS011;1480;51.456;6.670;2022-07-29T06:25:46;7.73;;;4.00;;
2940;SDS011;1480;51.456;6.670;2022-07-29T06:28:13;8.03;;;4.50;;
2940;SDS011;1480;51.456;6.670;2022-07-29T06:30:41;12.47;;;5.20;;
2940;SDS011;1480;51.456;6.670;2022-07-29T06:33:08;8.17;;;4.63;;
2940;SDS011;1480;51.456;6.670;2022-07-29T06:35:35;7.50;;;4.70;;
2940;SDS011;1480;51.456;6.670;2022-07-29T06:38:04;11.57;;;4.00;;
2940;SDS011;1480;51.456;6.670;2022-07-29T06:40:31;4.63;;;3.23;;
2940;SDS011;1480;51.456;6.670;2022-07-29T06:43:15;4.10;;;2.97;;
2940;SDS011;1480;51.456;6.670;2022-07-29T06:45:44;4.30;;;3.17;;
2940;SDS011;1480;51.456;6.670;2022-07-29T06:48:11;4.77;;;3.43;;
2940;SDS011;1480;51.456;6.670;2022-07-29T06:50:38;3.67;;;2.67;;
2940;SDS011;1480;51.456;6.670;2022-07-29T06:53:05;5.40;;;3.00;;
2940;SDS011;1480;51.456;6.670;2022-07-29T06:55:32;6.53;;;3.07;;
2940;SDS011;1480;51.456;6.670;2022-07-29T06:57:58;8.53;;;3.80;;
2940;SDS011;1480;51.456;6.670;2022-07-29T07:00:25;14.10;;;5.00;;
2940;SDS011;1480;51.456;6.670;2022-07-29T07:02:54;8.90;;;4.43;;
2940;SDS011;1480;51.456;6.670;2022-07-29T07:05:21;7.73;;;3.80;;
2940;SDS011;1480;51.456;6.670;2022-07-29T07:07:48;9.67;;;4.70;;
2940;SDS011;1480;51.456;6.670;2022-07-29T07:10:15;7.53;;;3.83;;
2940;SDS011;1480;51.456;6.670;2022-07-29T07:12:42;8.13;;;4.03;;
2940;SDS011;1480;51.456;6.670;2022-07-29T07:15:09;7.07;;;3.30;;
2940;SDS011;1480;51.456;6.670;2022-07-29T07:17:36;9.03;;;3.73;;
2940;SDS011;1480;51.456;6.670;2022-07-29T07:20:05;8.07;;;3.83;;
2940;SDS011;1480;51.456;6.670;2022-07-29T07:22:33;6.60;;;3.63;;
2940;SDS011;1480;51.456;6.670;2022-07-29T07:25:00;8.20;;;3.83;;
2940;SDS011;1480;51.456;6.670;2022-07-29T07:27:26;8.27;;;4.00;;
2940;SDS011;1480;51.456;6.670;2022-07-29T07:29:54;7.40;;;3.63;;
2940;SDS011;1480;51.456;6.670;2022-07-29T07:32:21;5.67;;;3.40;;
2940;SDS011;1480;51.456;6.670;2022-07-29T07:34:48;6.33;;;3.80;;
2940;SDS011;1480;51.456;6.670;2022-07-29T07:37:17;6.83;;;4.30;;
2940;SDS011;1480;51.456;6.670;2022-07-29T07:39:45;8.33;;;3.80;;
2940;SDS011;1480;51.456;6.670;2022-07-29T07:42:12;7.27;;;3.80;;
2940;SDS011;1480;51.456;6.670;2022-07-29T07:44:39;6.10;;;3.17;;
2940;SDS011;1480;51.456;6.670;2022-07-29T07:47:06;6.60;;;4.13;;
2940;SDS011;1480;51.456;6.670;2022-07-29T07:49:33;10.07;;;4.80;;
2940;SDS011;1480;51.456;6.670;2022-07-29T07:52:00;7.03;;;4.40;;
2940;SDS011;1480;51.456;6.670;2022-07-29T07:54:28;6.93;;;4.00;;
2940;SDS011;1480;51.456;6.670;2022-07-29T07:56:56;6.07;;;4.10;;
2940;SDS011;1480;51.456;6.670;2022-07-29T07:59:23;9.40;;;5.70;;
2940;SDS011;1480;51.456;6.670;2022-07-29T08:01:50;8.60;;;4.47;;
2940;SDS011;1480;51.456;6.670;2022-07-29T08:04:16;7.83;;;4.07;;
2940;SDS011;1480;51.456;6.670;2022-07-29T08:06:43;7.50;;;4.43;;
2940;SDS011;1480;51.456;6.670;2022-07-29T08:09:10;7.40;;;4.13;;
2940;SDS011;1480;51.456;6.670;2022-07-29T08:11:39;6.23;;;4.63;;
2940;SDS011;1480;51.456;6.670;2022-07-29T08:14:06;6.07;;;4.73;;
2940;SDS011;1480;51.456;6.670;2022-07-29T08:16:33;5.40;;;4.90;;
2940;SDS011;1480;51.456;6.670;2022-07-29T08:19:00;6.93;;;5.43;;
2940;SDS011;1480;51.456;6.670;2022-07-29T08:21:27;10.10;;;5.63;;
2940;SDS011;1480;51.456;6.670;2022-07-29T08:23:53;8.93;;;6.43;;
2940;SDS011;1480;51.456;6.670;2022-07-29T08:26:42;7.67;;;5.47;;
2940;SDS011;1480;51.456;6.670;2022-07-29T08:29:09;7.33;;;4.80;;
2940;SDS011;1480;51.456;6.670;2022-07-29T08:31:37;8.40;;;5.40;;
2940;SDS011;1480;51.456;6.670;2022-07-29T08:34:04;6.07;;;5.47;;
2940;SDS011;1480;51.456;6.670;2022-07-29T08:36:32;7.23;;;5.03;;
2940;SDS011;1480;51.456;6.670;2022-07-29T08:39:00;6.10;;;4.73;;
2940;SDS011;1480;51.456;6.670;2022-07-29T08:41:28;6.80;;;5.40;;
2940;SDS011;1480;51.456;6.670;2022-07-29T08:43:57;8.50;;;5.30;;
2940;SDS011;1480;51.456;6.670;2022-07-29T08:46:24;9.63;;;4.73;;
2940;SDS011;1480;51.456;6.670;2022-07-29T08:48:51;5.43;;;4.53;;
2940;SDS011;1480;51.456;6.670;2022-07-29T08:51:19;6.90;;;5.40;;
2940;SDS011;1480;51.456;6.670;2022-07-29T08:53:47;9.50;;;5.53;;
2940;SDS011;1480;51.456;6.670;2022-07-29T08:56:16;9.47;;;5.50;;
2940;SDS011;1480;51.456;6.670;2022-07-29T08:58:44;8.63;;;5.43;;
2940;SDS011;1480;51.456;6.670;2022-07-29T09:01:16;7.73;;;4.30;;
2940;SDS011;1480;51.456;6.670;2022-07-29T09:03:47;9.77;;;4.70;;
2940;SDS011;1480;51.456;6.670;2022-07-29T09:06:15;5.80;;;5.20;;
2940;SDS011;1480;51.456;6.670;2022-07-29T09:08:44;10.23;;;5.00;;
2940;SDS011;1480;51.456;6.670;2022-07-29T09:11:11;7.93;;;4.83;;
2940;SDS011;1480;51.456;6.670;2022-07-29T09:13:39;5.90;;;4.73;;
2940;SDS011;1480;51.456;6.670;2022-07-29T09:16:07;12.13;;;5.93;;
2940;SDS011;1480;51.456;6.670;2022-07-29T09:18:37;13.93;;;5.90;;
2940;SDS011;1480;51.456;6.670;2022-07-29T09:21:05;9.30;;;5.87;;
2940;SDS011;1480;51.456;6.670;2022-07-29T09:23:59;8.87;;;5.30;;
2940;SDS011;1480;51.456;6.670;2022-07-29T09:26:27;14.70;;;5.30;;
2940;SDS011;1480;51.456;6.670;2022-07-29T09:28:55;10.20;;;6.37;;
2940;SDS011;1480;51.456;6.670;2022-07-29T09:31:26;11.30;;;6.43;;
2940;SDS011;1480;51.456;6.670;2022-07-29T09:34:00;15.90;;;6.20;;
2940;SDS011;1480;51.456;6.670;2022-07-29T09:36:27;11.60;;;6.33;;
2940;SDS011;1480;51.456;6.670;2022-07-29T09:38:58;11.73;;;6.07;;
2940;SDS011;1480;51.456;6.670;2022-07-29T09:41:26;9.00;;;6.40;;
2940;SDS011;1480;51.456;6.670;2022-07-29T09:43:54;13.03;;;7.03;;
2940;SDS011;1480;51.456;6.670;2022-07-29T09:46:21;7.03;;;5.67;;
2940;SDS011;1480;51.456;6.670;2022-07-29T09:51:39;10.43;;;7.10;;
2940;SDS011;1480;51.456;6.670;2022-07-29T09:54:22;10.40;;;6.03;;
2940;SDS011;1480;51.456;6.670;2022-07-29T09:56:49;11.17;;;5.80;;
2940;SDS011;1480;51.456;6.670;2022-07-29T09:59:16;15.83;;;6.07;;
2940;SDS011;1480;51.456;6.670;2022-07-29T10:01:45;12.47;;;6.50;;
2940;SDS011;1480;51.456;6.670;2022-07-29T10:04:14;14.17;;;7.70;;
2940;SDS011;1480;51.456;6.670;2022-07-29T10:06:54;8.17;;;5.73;;
2940;SDS011;1480;51.456;6.670;2022-07-29T10:09:23;7.63;;;5.90;;
2940;SDS011;1480;51.456;6.670;2022-07-29T10:12:06;8.63;;;5.80;;
2940;SDS011;1480;51.456;6.670;2022-07-29T10:14:36;10.60;;;6.20;;
2940;SDS011;1480;51.456;6.670;2022-07-29T10:17:05;7.13;;;5.93;;
2940;SDS011;1480;51.456;6.670;2022-07-29T10:19:34;10.50;;;5.67;;
2940;SDS011;1480;51.456;6.670;2022-07-29T10:22:03;7.60;;;5.10;;
2940;SDS011;1480;51.456;6.670;2022-07-29T10:24:32;6.67;;;5.80;;
2940;SDS011;1480;51.456;6.670;2022-07-29T10:27:01;6.90;;;5.80;;
2940;SDS011;1480;51.456;6.670;2022-07-29T10:29:29;6.80;;;4.53;;
2940;SDS011;1480;51.456;6.670;2022-07-29T10:32:02;6.43;;;5.23;;
2940;SDS011;1480;51.456;6.670;2022-07-29T10:34:57;4.37;;;3.70;;
2940;SDS011;1480;51.456;6.670;2022-07-29T10:40:59;12.17;;;7.47;;
2940;SDS011;1480;51.456;6.670;2022-07-29T10:43:58;7.90;;;5.60;;
2940;SDS011;1480;51.456;6.670;2022-07-29T10:46:27;11.40;;;6.00;;
2940;SDS011;1480;51.456;6.670;2022-07-29T10:49:06;8.93;;;5.30;;
2940;SDS011;1480;51.456;6.670;2022-07-29T10:54:37;8.10;;;3.80;;
2940;SDS011;1480;51.456;6.670;2022-07-29T10:57:22;5.27;;;2.97;;
2940;SDS011;1480;51.456;6.670;2022-07-29T11:02:53;8.60;;;5.00;;
2940;SDS011;1480;51.456;6.670;2022-07-29T11:05:23;8.67;;;6.20;;
2940;SDS011;1480;51.456;6.670;2022-07-29T11:10:47;8.73;;;7.37;;
2940;SDS011;1480;51.456;6.670;2022-07-29T11:16:13;8.13;;;5.97;;
2940;SDS011;1480;51.456;6.670;2022-07-29T11:21:43;13.40;;;4.10;;
2940;SDS011;1480;51.456;6.670;2022-07-29T11:24:13;6.83;;;4.47;;
2940;SDS011;1480;51.456;6.670;2022-07-29T11:26:41;8.20;;;4.20;;
2940;SDS011;1480;51.456;6.670;2022-07-29T11:29:16;13.00;;;4.33;;
2940;SDS011;1480;51.456;6.670;2022-07-29T11:31:46;7.70;;;4.10;;
2940;SDS011;1480;51.456;6.670;2022-07-29T11:34:23;8.03;;;4.27;;
2940;SDS011;1480;51.456;6.670;2022-07-29T11:39:45;6.67;;;4.30;;
2940;SDS011;1480;51.456;6.670;2022-07-29T11:45:11;4.40;;;2.90;;
2940;SDS011;1480;51.456;6.670;2022-07-29T11:47:42;10.00;;;4.33;;
2940;SDS011;1480;51.456;6.670;2022-07-29T11:50:15;9.23;;;4.00;;
2940;SDS011;1480;51.456;6.670;2022-07-29T11:52:44;4.37;;;3.73;;
2940;SDS011;1480;51.456;6.670;2022-07-29T11:55:15;8.70;;;3.53;;
2940;SDS011;1480;51.456;6.670;2022-07-29T11:57:47;5.90;;;3.23;;
2940;SDS011;1480;51.456;6.670;2022-07-29T12:00:26;7.00;;;3.10;;
2940;SDS011;1480;51.456;6.670;2022-07-29T12:02:55;3.73;;;2.30;;
2940;SDS011;1480;51.456;6.670;2022-07-29T12:05:37;8.77;;;2.73;;
2940;SDS011;1480;51.456;6.670;2022-07-29T12:08:12;4.77;;;2.70;;
2940;SDS011;1480;51.456;6.670;2022-07-29T12:10:45;6.00;;;3.10;;
2940;SDS011;1480;51.456;6.670;2022-07-29T12:13:14;11.07;;;3.43;;
2940;SDS011;1480;51.456;6.670;2022-07-29T12:15:42;5.57;;;2.90;;
2940;SDS011;1480;51.456;6.670;2022-07-29T12:18:17;7.23;;;2.87;;
2940;SDS011;1480;51.456;6.670;2022-07-29T12:20:46;6.67;;;3.40;;
2940;SDS011;1480;51.456;6.670;2022-07-29T12:23:14;8.23;;;3.90;;
2940;SDS011;1480;51.456;6.670;2022-07-29T12:25:43;7.17;;;4.10;;
2940;SDS011;1480;51.456;6.670;2022-07-29T12:28:13;7.47;;;3.40;;
2940;SDS011;1480;51.456;6.670;2022-07-29T12:30:44;6.70;;;3.07;;
2940;SDS011;1480;51.456;6.670;2022-07-29T12:33:17;4.77;;;2.90;;
2940;SDS011;1480;51.456;6.670;2022-07-29T12:35:46;4.77;;;3.07;;
2940;SDS011;1480;51.456;6.670;2022-07-29T12:38:15;4.87;;;2.57;;
2940;SDS011;1480;51.456;6.670;2022-07-29T12:40:43;7.53;;;2.67;;
2940;SDS011;1480;51.456;6.670;2022-07-29T12:43:13;3.40;;;2.00;;
2940;SDS011;1480;51.456;6.670;2022-07-29T12:45:42;8.93;;;3.03;;
2940;SDS011;1480;51.456;6.670;2022-07-29T12:48:11;6.20;;;3.63;;
2940;SDS011;1480;51.456;6.670;2022-07-29T12:50:52;6.30;;;3.50;;
2940;SDS011;1480;51.456;6.670;2022-07-29T12:53:20;9.00;;;3.63;;
2940;SDS011;1480;51.456;6.670;2022-07-29T12:55:49;8.57;;;3.67;;
2940;SDS011;1480;51.456;6.670;2022-07-29T12:58:27;12.50;;;3.93;;
2940;SDS011;1480;51.456;6.670;2022-07-29T13:01:02;9.17;;;3.23;;
2940;SDS011;1480;51.456;6.670;2022-07-29T13:03:47;7.27;;;3.13;;
2940;SDS011;1480;51.456;6.670;2022-07-29T13:06:36;6.17;;;2.70;;
2940;SDS011;1480;51.456;6.670;2022-07-29T13:09:05;3.70;;;2.17;;
2940;SDS011;1480;51.456;6.670;2022-07-29T13:11:39;6.00;;;3.20;;
2940;SDS011;1480;51.456;6.670;2022-07-29T13:14:07;6.00;;;2.80;;
2940;SDS011;1480;51.456;6.670;2022-07-29T13:16:36;8.33;;;2.70;;
2940;SDS011;1480;51.456;6.670;2022-07-29T13:19:32;4.37;;;2.37;;
2940;SDS011;1480;51.456;6.670;2022-07-29T13:22:00;6.40;;;2.83;;
2940;SDS011;1480;51.456;6.670;2022-07-29T13:24:27;4.87;;;2.33;;
2940;SDS011;1480;51.456;6.670;2022-07-29T13:26:55;6.67;;;2.63;;
2940;SDS011;1480;51.456;6.670;2022-07-29T13:29:22;5.73;;;2.90;;
2940;SDS011;1480;51.456;6.670;2022-07-29T13:31:51;6.53;;;3.00;;
2940;SDS011;1480;51.456;6.670;2022-07-29T13:34:18;6.33;;;3.50;;
2940;SDS011;1480;51.456;6.670;2022-07-29T13:36:47;6.97;;;3.10;;
2940;SDS011;1480;51.456;6.670;2022-07-29T13:39:14;7.67;;;3.80;;
2940;SDS011;1480;51.456;6.670;2022-07-29T13:41:41;7.50;;;3.73;;
2940;SDS011;1480;51.456;6.670;2022-07-29T13:44:09;7.53;;;3.57;;
2940;SDS011;1480;51.456;6.670;2022-07-29T13:46:36;8.37;;;3.93;;
2940;SDS011;1480;51.456;6.670;2022-07-29T13:49:03;7.60;;;4.53;;
2940;SDS011;1480;51.456;6.670;2022-07-29T13:51:30;5.43;;;3.80;;
2940;SDS011;1480;51.456;6.670;2022-07-29T13:53:57;6.80;;;4.20;;
2940;SDS011;1480;51.456;6.670;2022-07-29T13:56:24;6.00;;;3.20;;
2940;SDS011;1480;51.456;6.670;2022-07-29T13:58:51;4.07;;;3.67;;
2940;SDS011;1480;51.456;6.670;2022-07-29T14:01:19;7.10;;;4.60;;
2940;SDS011;1480;51.456;6.670;2022-07-29T14:03:46;6.43;;;4.20;;
2940;SDS011;1480;51.456;6.670;2022-07-29T14:06:13;7.00;;;3.70;;
2940;SDS011;1480;51.456;6.670;2022-07-29T14:08:40;8.80;;;4.07;;
2940;SDS011;1480;51.456;6.670;2022-07-29T14:11:08;5.97;;;3.83;;
2940;SDS011;1480;51.456;6.670;2022-07-29T14:13:34;4.97;;;3.80;;
2940;SDS011;1480;51.456;6.670;2022-07-29T14:16:01;12.53;;;4.70;;
2940;SDS011;1480;51.456;6.670;2022-07-29T14:18:30;7.53;;;4.30;;
2940;SDS011;1480;51.456;6.670;2022-07-29T14:20:57;13.53;;;4.20;;
2940;SDS011;1480;51.456;6.670;2022-07-29T14:23:24;5.10;;;3.00;;
2940;SDS011;1480;51.456;6.670;2022-07-29T14:25:51;5.07;;;3.27;;
2940;SDS011;1480;51.456;6.670;2022-07-29T14:28:18;9.17;;;3.50;;
2940;SDS011;1480;51.456;6.670;2022-07-29T14:30:45;6.40;;;2.70;;
2940;SDS011;1480;51.456;6.670;2022-07-29T14:33:13;8.83;;;2.13;;
2940;SDS011;1480;51.456;6.670;2022-07-29T14:35:42;7.63;;;2.00;;
2940;SDS011;1480;51.456;6.670;2022-07-29T14:38:09;4.77;;;2.50;;
2940;SDS011;1480;51.456;6.670;2022-07-29T14:40:36;4.97;;;2.87;;
2940;SDS011;1480;51.456;6.670;2022-07-29T14:43:03;4.20;;;2.47;;
2940;SDS011;1480;51.456;6.670;2022-07-29T14:45:30;3.40;;;1.90;;
2940;SDS011;1480;51.456;6.670;2022-07-29T14:47:57;4.00;;;2.13;;
2940;SDS011;1480;51.456;6.670;2022-07-29T14:50:25;3.90;;;2.37;;
2940;SDS011;1480;51.456;6.670;2022-07-29T14:52:53;7.13;;;2.60;;
2940;SDS011;1480;51.456;6.670;2022-07-29T14:55:21;4.00;;;2.63;;
2940;SDS011;1480;51.456;6.670;2022-07-29T14:57:48;4.30;;;2.10;;
2940;SDS011;1480;51.456;6.670;2022-07-29T15:00:16;7.47;;;2.27;;
2940;SDS011;1480;51.456;6.670;2022-07-29T15:02:43;5.10;;;2.70;;
2940;SDS011;1480;51.456;6.670;2022-07-29T15:05:10;4.90;;;2.27;;
2940;SDS011;1480;51.456;6.670;2022-07-29T15:07:37;3.20;;;2.13;;
2940;SDS011;1480;51.456;6.670;2022-07-29T15:10:06;4.50;;;2.10;;
2940;SDS011;1480;51.456;6.670;2022-07-29T15:12:33;6.10;;;2.50;;
2940;SDS011;1480;51.456;6.670;2022-07-29T15:15:00;8.50;;;2.33;;
2940;SDS011;1480;51.456;6.670;2022-07-29T15:17:27;5.20;;;2.23;;
2940;SDS011;1480;51.456;6.670;2022-07-29T15:19:54;7.43;;;2.53;;
2940;SDS011;1480;51.456;6.670;2022-07-29T15:22:21;4.53;;;2.40;;
2940;SDS011;1480;51.456;6.670;2022-07-29T15:24:48;2.93;;;2.20;;
2940;SDS011;1480;51.456;6.670;2022-07-29T15:27:16;3.97;;;2.40;;
2940;SDS011;1480;51.456;6.670;2022-07-29T15:29:43;14.47;;;3.40;;
2940;SDS011;1480;51.456;6.670;2022-07-29T15:32:10;6.67;;;2.73;;
2940;SDS011;1480;51.456;6.670;2022-07-29T15:34:37;28.30;;;7.40;;
2940;SDS011;1480;51.456;6.670;2022-07-29T15:37:05;12.23;;;4.80;;
2940;SDS011;1480;51.456;6.670;2022-07-29T15:39:32;9.50;;;3.80;;
2940;SDS011;1480;51.456;6.670;2022-07-29T15:41:59;4.70;;;2.63;;
2940;SDS011;1480;51.456;6.670;2022-07-29T15:44:27;5.60;;;2.87;;
2940;SDS011;1480;51.456;6.670;2022-07-29T15:46:54;6.63;;;3.20;;
2940;SDS011;1480;51.456;6.670;2022-07-29T15:49:31;4.50;;;2.97;;
2940;SDS011;1480;51.456;6.670;2022-07-29T15:51:59;13.63;;;3.27;;
2940;SDS011;1480;51.456;6.670;2022-07-29T15:54:28;6.30;;;2.90;;